Time;durP1;ratioP1;P1;durP2;ratioP2;P2;SDS_P1;SDS_P2;PMS_P1;PMS_P2;Temp;Humidity;BMP_temperature;BMP_pressure;BME280_temperature;BME280_humidity;BME280_pressure;Samples;Min_cycle;Max_cycle;Signal;HPM_P1;HPM_P2
2022/04/13 00:00:17;;;;;;;10.23;4.47;;;;;;;1.34;60.62;100348.72;1772381;80;21008;-58
2022/04/13 00:02:45;;;;;;;13.90;4.60;;;;;;;1.33;60.64;100353.02;1771688;80;20917;-58
2022/04/13 00:05:12;;;;;;;9.30;4.53;;;;;;;1.32;60.66;100349.17;1773252;79;20969;-58
2022/04/13 00:07:39;;;;;;;10.88;4.92;;;;;;;1.31;60.79;100346.16;1765956;80;21077;-58
2022/04/13 00:10:07;;;;;;;11.22;4.58;;;;;;;1.29;60.78;100342.74;1768246;79;21695;-58
2022/04/13 00:12:34;;;;;;;14.95;5.25;;;;;;;1.27;60.77;100345.73;1761363;80;20961;-58
2022/04/13 00:15:02;;;;;;;10.50;4.17;;;;;;;1.22;60.76;100343.15;1769403;79;22253;-59
2022/04/13 00:17:30;;;;;;;10.80;4.60;;;;;;;1.20;60.72;100336.28;1771643;80;21009;-58
2022/04/13 00:19:58;;;;;;;9.98;4.08;;;;;;;1.20;60.73;100340.14;1767376;79;21598;-58
2022/04/13 00:22:24;;;;;;;;;;;;;;;1.20;60.73;100336.28;1771422;80;21032;-59
2022/04/13 00:24:51;;;;;;;8.50;4.50;;;;;;;1.21;60.81;100332.88;1769814;80;20096;-59
2022/04/13 00:27:17;;;;;;;9.98;4.50;;;;;;;1.17;60.77;100325.99;1770576;79;21597;-58
2022/04/13 00:29:44;;;;;;;10.68;4.67;;;;;;;1.10;60.78;100319.56;1766579;80;21128;-59
2022/04/13 00:32:11;;;;;;;8.68;4.42;;;;;;;1.05;60.75;100319.98;1769772;79;20923;-58
2022/04/13 00:34:37;;;;;;;7.78;4.53;;;;;;;1.00;60.85;100313.97;1763058;79;20946;-58
2022/04/13 00:37:04;;;;;;;7.47;3.90;;;;;;;0.96;60.84;100312.27;1772688;80;21111;-58
2022/04/13 00:39:31;;;;;;;9.50;4.30;;;;;;;0.96;60.84;100308.41;1767623;80;21090;-58
2022/04/13 00:42:01;;;;;;;7.53;3.90;;;;;;;0.97;60.82;100311.40;1769524;80;20931;-59
2022/04/13 00:44:29;;;;;;;11.75;3.87;;;;;;;1.02;60.82;100300.70;1764931;79;22043;-59
2022/04/13 00:46:57;;;;;;;7.30;4.28;;;;;;;1.09;60.78;100298.98;1767915;79;20996;-58
2022/04/13 00:49:25;;;;;;;8.48;4.00;;;;;;;1.14;60.71;100297.70;1769655;79;21023;-59
2022/04/13 00:51:53;;;;;;;10.88;3.87;;;;;;;1.18;60.68;100296.87;1770063;79;21180;-59
2022/04/13 00:54:22;;;;;;;8.48;3.77;;;;;;;1.25;60.66;100304.56;1770768;80;21001;-59
2022/04/13 00:56:52;;;;;;;9.35;3.85;;;;;;;1.31;60.68;100301.13;1766941;80;21052;-59
2022/04/13 00:59:21;;;;;;;10.70;4.20;;;;;;;1.33;60.62;100304.56;1770684;79;20994;-61
2022/04/13 01:01:49;;;;;;;10.98;3.52;;;;;;;1.35;60.61;100301.57;1767617;80;20996;-60
2022/04/13 01:04:17;;;;;;;9.35;4.65;;;;;;;1.37;60.59;100307.98;1772903;79;21901;-61
2022/04/13 01:06:45;;;;;;;13.68;5.35;;;;;;;1.37;60.54;100315.27;1790317;78;21099;-60
2022/04/13 01:09:13;;;;;;;15.15;5.00;;;;;;;1.34;60.55;100317.84;1792365;78;21038;-60
2022/04/13 01:11:41;;;;;;;13.43;4.97;;;;;;;1.29;60.56;100327.31;1790949;78;21506;-60
2022/04/13 01:14:09;;;;;;;14.68;6.25;;;;;;;1.23;60.60;100325.99;1791308;78;20941;-61
2022/04/13 01:16:39;;;;;;;9.73;5.00;;;;;;;1.18;60.65;100326.45;1790159;78;21905;-61
2022/04/13 01:19:07;;;;;;;9.10;4.22;;;;;;;1.14;60.69;100329.85;1790043;78;21674;-60
2022/04/13 01:21:47;;;;;;;12.55;4.35;;;;;;;1.14;60.74;100336.28;1790936;78;21176;-61
2022/04/13 01:24:16;;;;;;;12.53;3.83;;;;;;;1.14;60.72;100335.00;1794452;78;21052;-61
2022/04/13 01:26:42;;;;;;;9.40;4.30;;;;;;;1.14;60.72;100338.86;1790305;78;20969;-61
2022/04/13 01:29:09;;;;;;;8.08;4.70;;;;;;;1.09;60.72;100339.73;1789072;78;21931;-61
2022/04/13 01:31:36;;;;;;;11.68;5.03;;;;;;;1.03;60.72;100339.69;1789295;78;21115;-61
2022/04/13 01:34:03;;;;;;;9.73;4.63;;;;;;;0.98;60.75;100341.42;1790209;78;20934;-61
2022/04/13 01:36:38;;;;;;;9.70;4.65;;;;;;;0.94;60.83;100334.54;1789593;78;21018;-61
2022/04/13 01:39:06;;;;;;;14.58;5.20;;;;;;;0.90;60.85;100335.41;1792522;78;21020;-60
2022/04/13 01:41:34;;;;;;;9.55;4.78;;;;;;;0.90;60.91;100335.41;1785443;78;21070;-61
2022/04/13 01:44:09;;;;;;;13.85;5.67;;;;;;;0.89;60.87;100336.24;1789505;78;20937;-61
2022/04/13 01:46:39;;;;;;;22.13;5.08;;;;;;;0.89;60.88;100338.81;1789863;78;21076;-60
2022/04/13 01:49:06;;;;;;;19.70;4.67;;;;;;;0.89;60.84;100332.38;1790466;78;20948;-61
2022/04/13 01:51:33;;;;;;;23.40;6.12;;;;;;;0.88;60.88;100335.83;1791333;78;20937;-61
2022/04/13 01:54:00;;;;;;;13.90;5.40;;;;;;;0.87;60.88;100343.12;1791836;78;21284;-61
2022/04/13 01:56:26;;;;;;;13.62;5.30;;;;;;;0.85;60.90;100337.11;1790432;78;21563;-60
2022/04/13 01:58:53;;;;;;;11.40;4.35;;;;;;;0.79;60.93;100341.80;1790369;78;21068;-61
2022/04/13 02:01:19;;;;;;;8.88;4.85;;;;;;;0.76;60.95;100342.23;1789626;78;21000;-61
2022/04/13 02:03:46;;;;;;;9.27;4.80;;;;;;;0.74;60.97;100341.36;1788628;78;21022;-61
2022/04/13 02:06:15;;;;;;;14.65;5.47;;;;;;;0.72;60.99;100337.92;1773714;78;21426;-61
2022/04/13 02:08:42;;;;;;;13.68;6.08;;;;;;;0.67;61.02;100343.04;1772569;80;20929;-60
2022/04/13 02:11:09;;;;;;;18.67;6.25;;;;;;;0.63;61.07;100352.46;1771945;79;20962;-61
2022/04/13 02:13:36;;;;;;;10.40;5.12;;;;;;;0.59;61.07;100339.19;1774567;79;21563;-61
2022/04/13 02:16:05;;;;;;;13.53;5.05;;;;;;;0.57;61.16;100347.30;1769149;79;20953;-62
2022/04/13 02:18:32;;;;;;;16.70;5.40;;;;;;;0.56;61.22;100343.03;1771711;78;21126;-61
2022/04/13 02:20:59;;;;;;;10.43;5.10;;;;;;;0.55;61.23;100343.86;1775118;79;21080;-61
2022/04/13 02:23:25;;;;;;;18.15;5.85;;;;;;;0.52;61.27;100346.42;1773263;78;21009;-61
2022/04/13 02:25:52;;;;;;;9.88;5.15;;;;;;;0.49;61.33;100351.56;1775421;78;21054;-61
2022/04/13 02:28:19;;;;;;;9.90;5.10;;;;;;;0.47;61.34;100348.11;1770584;78;20895;-61
2022/04/13 02:30:45;;;;;;;14.80;5.70;;;;;;;0.46;61.35;100354.12;1775097;79;21581;-61
2022/04/13 02:33:12;;;;;;;9.90;5.40;;;;;;;0.47;61.46;100354.54;1770786;79;21017;-61
2022/04/13 02:35:38;;;;;;;14.43;5.60;;;;;;;0.49;61.50;100356.70;1772779;79;21510;-61
2022/04/13 02:38:05;;;;;;;14.25;5.67;;;;;;;0.52;61.47;100357.98;1774690;78;20906;-61
2022/04/13 02:40:32;;;;;;;9.85;4.87;;;;;;;0.51;61.43;100357.57;1773359;78;21634;-62
2022/04/13 02:42:59;;;;;;;14.30;5.10;;;;;;;0.50;61.41;100360.12;1774492;79;21439;-61
2022/04/13 02:45:25;;;;;;;16.53;5.93;;;;;;;0.49;61.45;100358.41;1775841;79;20998;-61
2022/04/13 02:47:52;;;;;;;11.47;5.10;;;;;;;0.52;61.61;100360.56;1772793;79;20976;-61
2022/04/13 02:50:19;;;;;;;14.65;5.60;;;;;;;0.55;61.58;100356.71;1772018;78;20946;-61
2022/04/13 02:52:45;;;;;;;10.53;5.47;;;;;;;0.57;61.56;100352.87;1771722;79;20945;-61
2022/04/13 02:55:12;;;;;;;14.30;5.70;;;;;;;0.57;61.54;100360.16;1772029;79;21020;-61
2022/04/13 02:57:41;;;;;;;13.08;5.42;;;;;;;0.47;61.62;100340.41;1771326;80;20948;-61
2022/04/13 03:00:09;;;;;;;13.25;5.85;;;;;;;0.55;61.59;100351.58;1772255;79;21017;-61
2022/04/13 03:02:35;;;;;;;12.28;6.30;;;;;;;0.53;61.57;100354.98;1770356;79;20992;-61
2022/04/13 03:05:02;;;;;;;19.23;6.47;;;;;;;0.52;61.65;100358.42;1748141;79;21009;-61
2022/04/13 03:07:32;;;;;;;10.98;5.33;;;;;;;0.52;61.71;100351.56;1792164;78;22352;-62
2022/04/13 03:09:57;;;;;;;14.25;6.28;;;;;;;0.53;61.70;100348.13;1792429;78;20943;-61
2022/04/13 03:12:24;;;;;;;15.87;6.10;;;;;;;0.51;61.74;100348.58;1791971;78;21596;-61
2022/04/13 03:14:51;;;;;;;38.35;7.37;;;;;;;0.51;61.81;100355.00;1794399;78;20958;-61
2022/04/13 03:17:18;;;;;;;24.20;6.12;;;;;;;0.50;61.85;100349.84;1794962;78;21007;-61
2022/04/13 03:19:45;;;;;;;24.15;7.83;;;;;;;0.50;61.89;100342.98;1794641;78;21442;-61
2022/04/13 03:22:11;;;;;;;35.55;7.42;;;;;;;0.53;61.94;100336.57;1789032;78;20995;-61
2022/04/13 03:24:38;;;;;;;41.63;7.50;;;;;;;0.54;61.93;100333.17;1792774;78;21558;-60
2022/04/13 03:27:04;;;;;;;31.67;6.17;;;;;;;0.53;61.91;100340.42;1792356;78;21032;-61
2022/04/13 03:29:31;;;;;;;25.82;6.20;;;;;;;0.52;62.00;100351.56;1792422;78;21016;-61
2022/04/13 03:31:58;;;;;;;37.05;5.83;;;;;;;0.51;62.07;100346.01;1791340;79;21592;-61
2022/04/13 03:34:25;;;;;;;18.17;5.67;;;;;;;0.52;62.09;100338.72;1793450;78;21075;-62
2022/04/13 03:36:51;;;;;;;19.05;6.37;;;;;;;0.53;62.15;100342.99;1793686;78;21471;-61
2022/04/13 03:39:18;;;;;;;16.47;5.30;;;;;;;0.55;62.15;100352.86;1789575;78;20968;-61
2022/04/13 03:41:45;;;;;;;14.50;5.10;;;;;;;0.55;62.19;100346.44;1790843;78;21135;-61
2022/04/13 03:44:12;;;;;;;19.60;5.65;;;;;;;0.58;62.27;100353.30;1791575;78;21403;-62
2022/04/13 03:46:39;;;;;;;21.48;6.12;;;;;;;0.58;62.29;100356.72;1790557;78;22186;-61
2022/04/13 03:49:07;;;;;;;11.43;5.13;;;;;;;0.62;62.33;100358.47;1792802;78;20903;-61
2022/04/13 03:51:34;;;;;;;13.55;5.35;;;;;;;0.69;62.44;100361.05;1788540;78;20993;-61
2022/04/13 03:54:00;;;;;;;12.25;5.83;;;;;;;0.78;62.48;100358.50;1789231;78;20899;-61
2022/04/13 03:56:28;;;;;;;16.37;6.72;;;;;;;0.90;62.52;100359.83;1793090;78;21099;-61
2022/04/13 03:58:56;;;;;;;11.85;5.40;;;;;;;1.03;62.54;100355.13;1790889;78;21001;-62
2022/04/13 04:01:23;;;;;;;11.97;5.90;;;;;;;1.16;62.54;100355.16;1788040;78;21355;-62
2022/04/13 04:03:50;;;;;;;20.70;6.20;;;;;;;1.27;62.59;100349.59;1794759;78;20951;-61
2022/04/13 04:06:16;;;;;;;16.20;7.37;;;;;;;1.48;62.73;100352.59;1779526;78;20990;-61
2022/04/13 04:08:43;;;;;;;23.47;6.63;;;;;;;1.78;62.77;100352.56;1771095;78;21132;-61
2022/04/13 04:11:10;;;;;;;13.90;6.10;;;;;;;2.24;62.77;100354.17;1772492;79;21056;-61
2022/04/13 04:13:36;;;;;;;18.87;6.60;;;;;;;2.69;62.64;100354.88;1774483;78;21514;-61
2022/04/13 04:16:04;;;;;;;20.72;6.10;;;;;;;3.07;62.26;100340.88;1773341;78;21480;-61
2022/04/13 04:18:30;;;;;;;;;;;;;;;3.59;62.50;100345.66;1775897;80;20939;-60
2022/04/13 04:20:57;;;;;;;9.30;5.20;;;;;;;4.07;62.20;100351.20;1773156;79;22067;-60
2022/04/13 04:23:24;;;;;;;17.57;5.40;;;;;;;4.37;62.08;100351.72;1772294;80;21020;-60
2022/04/13 04:25:50;;;;;;;17.00;5.45;;;;;;;4.58;62.18;100357.94;1774483;80;21858;-61
2022/04/13 04:28:18;;;;;;;19.53;5.37;;;;;;;4.82;62.20;100367.56;1775015;80;21570;-61
2022/04/13 04:30:46;;;;;;;11.78;5.50;;;;;;;5.12;62.27;100367.10;1772238;79;20941;-61
2022/04/13 04:33:16;;;;;;;15.55;6.37;;;;;;;5.52;62.31;100374.28;1773223;79;21029;-62
2022/04/13 04:35:50;;;;;;;18.52;7.37;;;;;;;6.03;62.20;100368.27;1774429;79;21012;-61
2022/04/13 04:38:17;;;;;;;20.55;9.05;;;;;;;6.64;61.93;100363.17;1774206;78;21007;-61
2022/04/13 04:40:44;;;;;;;12.93;6.73;;;;;;;7.22;61.52;100354.52;1776152;79;21001;-61
2022/04/13 04:43:11;;;;;;;14.83;7.12;;;;;;;7.56;61.10;100355.00;1729327;80;20997;-61
2022/04/13 04:45:38;;;;;;;29.77;7.87;;;;;;;7.85;60.71;100349.94;1726281;82;22295;-61
2022/04/13 04:48:06;;;;;;;21.40;8.60;;;;;;;8.19;60.63;100346.43;1728724;82;21034;-60
2022/04/13 04:50:34;;;;;;;17.60;7.55;;;;;;;8.61;60.53;100344.84;1728417;81;21124;-61
2022/04/13 04:53:01;;;;;;;21.93;7.83;;;;;;;9.13;60.49;100347.19;1728526;80;20965;-63
2022/04/13 04:55:29;;;;;;;14.90;7.47;;;;;;;9.84;60.54;100356.60;1767815;78;21544;-63
2022/04/13 04:57:56;;;;;;;22.02;7.85;;;;;;;10.44;60.12;100363.19;1772846;79;21766;-63
2022/04/13 05:00:27;;;;;;;16.23;7.85;;;;;;;11.23;60.56;100374.16;1773930;78;21668;-62
2022/04/13 05:02:54;;;;;;;13.50;7.40;;;;;;;12.03;59.99;100372.20;1759886;80;21019;-63
2022/04/13 05:05:21;;;;;;;19.17;7.25;;;;;;;12.50;59.34;100370.58;1773665;78;21020;-62
2022/04/13 05:07:48;;;;;;;21.27;8.68;;;;;;;12.75;58.84;100377.72;1771705;79;21037;-62
2022/04/13 05:10:16;;;;;;;25.88;7.83;;;;;;;12.88;58.52;100373.20;1772797;80;21098;-62
2022/04/13 05:12:57;;;;;;;32.83;10.43;;;;;;;13.04;58.10;100376.82;1766806;78;21559;-62
2022/04/13 05:15:23;;;;;;;58.05;11.68;;;;;;;13.11;57.62;100369.06;1772062;80;21020;-62
2022/04/13 05:17:50;;;;;;;24.12;10.28;;;;;;;13.24;57.76;100372.41;1772728;79;21132;-62
2022/04/13 05:20:17;;;;;;;34.25;9.95;;;;;;;13.42;57.41;100366.31;1774132;79;20964;-62
2022/04/13 05:22:44;;;;;;;19.45;8.80;;;;;;;13.55;56.92;100362.14;1771444;79;21044;-63
2022/04/13 05:25:16;;;;;;;18.52;7.50;;;;;;;13.65;56.64;100352.91;1770477;80;21621;-61
2022/04/13 05:27:45;;;;;;;19.23;9.03;;;;;;;13.73;56.40;100349.06;1769575;79;21004;-62
2022/04/13 05:30:14;;;;;;;18.62;9.60;;;;;;;14.05;56.31;100350.87;1772216;79;21511;-63
2022/04/13 05:32:58;;;;;;;37.33;10.80;;;;;;;14.42;56.30;100346.78;1775073;78;21568;-62
2022/04/13 05:35:25;;;;;;;27.20;8.73;;;;;;;14.92;56.01;100355.05;1769792;79;21309;-63
2022/04/13 05:37:53;;;;;;;21.77;8.30;;;;;;;15.26;55.45;100356.64;1770870;80;21017;-63
2022/04/13 05:40:23;;;;;;;37.70;9.53;;;;;;;15.12;55.00;100364.47;1773724;78;21036;-64
2022/04/13 05:42:53;;;;;;;20.32;7.72;;;;;;;14.96;54.64;100372.37;1769588;79;20976;-64
2022/04/13 05:45:20;;;;;;;13.60;6.83;;;;;;;14.86;54.41;100375.95;1771512;79;21008;-63
2022/04/13 05:47:47;;;;;;;11.97;6.75;;;;;;;14.99;54.28;100384.03;1771520;78;21028;-62
2022/04/13 05:50:19;;;;;;;11.18;5.85;;;;;;;15.05;54.00;100384.16;1770393;78;20925;-63
2022/04/13 05:52:46;;;;;;;10.88;7.42;;;;;;;15.07;53.47;100370.44;1773846;78;20933;-63
2022/04/13 05:55:13;;;;;;;14.55;8.15;;;;;;;15.02;52.93;100371.19;1767087;78;20985;-63
2022/04/13 05:57:40;;;;;;;16.95;7.72;;;;;;;14.69;52.37;100376.03;1769407;80;21032;-62
2022/04/13 06:00:13;;;;;;;12.25;7.78;;;;;;;14.48;52.08;100363.52;1771336;78;21520;-64
2022/04/13 06:02:41;;;;;;;15.28;8.75;;;;;;;13.86;51.75;100359.30;1771334;80;21077;-64
2022/04/13 06:05:09;;;;;;;22.25;9.90;;;;;;;13.17;51.72;100364.84;1769195;78;21009;-64
2022/04/13 06:07:36;;;;;;;17.87;9.23;;;;;;;12.79;51.83;100355.30;1773532;78;20996;-64
2022/04/13 06:10:05;;;;;;;13.32;6.60;;;;;;;12.45;51.72;100355.53;1770204;80;21467;-66
2022/04/13 06:12:33;;;;;;;10.70;7.22;;;;;;;12.00;51.48;100357.94;1770475;80;21610;-64
2022/04/13 06:15:09;;;;;;;16.00;6.80;;;;;;;11.68;51.56;100360.13;1772146;78;21009;-64
2022/04/13 06:17:37;;;;;;;9.73;6.75;;;;;;;11.50;51.43;100361.72;1773407;80;20922;-63
2022/04/13 06:20:06;;;;;;;21.82;9.68;;;;;;;11.45;51.38;100374.59;1742281;78;21692;-63
2022/04/13 06:22:39;;;;;;;18.15;9.95;;;;;;;11.28;51.25;100377.42;1773331;78;20970;-63
2022/04/13 06:25:10;;;;;;;16.80;9.43;;;;;;;11.05;51.33;100382.70;1769863;78;21799;-62
2022/04/13 06:27:37;;;;;;;20.45;8.03;;;;;;;10.88;51.33;100385.50;1771153;78;21029;-62
2022/04/13 06:30:06;;;;;;;30.85;12.20;;;;;;;10.68;51.11;100385.41;1769664;78;20968;-62
2022/04/13 06:32:42;;;;;;;29.18;9.05;;;;;;;10.33;51.12;100391.44;1773776;79;21033;-62
2022/04/13 06:35:16;;;;;;;14.43;6.72;;;;;;;10.09;51.00;100393.14;1769924;79;21067;-61
2022/04/13 06:37:46;;;;;;;15.58;6.75;;;;;;;9.87;51.06;100399.53;1772709;79;21690;-61
2022/04/13 06:40:14;;;;;;;12.50;6.15;;;;;;;9.67;50.89;100390.22;1773514;78;20990;-61
2022/04/13 06:42:42;;;;;;;13.50;5.00;;;;;;;9.46;50.94;100388.69;1768905;79;21664;-61
2022/04/13 06:45:13;;;;;;;9.73;5.50;;;;;;;9.24;50.77;100394.17;1772816;78;20976;-60
2022/04/13 06:47:40;;;;;;;12.37;6.92;;;;;;;9.05;50.87;100391.30;1772891;78;20930;-60
2022/04/13 06:50:09;;;;;;;14.58;7.70;;;;;;;8.89;50.92;100385.69;1772432;79;21085;-60
2022/04/13 06:52:37;;;;;;;9.98;6.78;;;;;;;8.76;50.68;100383.03;1772808;78;21482;-61
2022/04/13 06:55:09;;;;;;;18.30;7.40;;;;;;;8.60;50.80;100383.50;1767274;80;21138;-61
2022/04/13 06:57:37;;;;;;;13.95;8.50;;;;;;;8.52;50.89;100376.35;1740875;79;20992;-61
2022/04/13 07:00:07;;;;;;;9.10;6.15;;;;;;;8.45;50.83;100382.61;1768720;78;21540;-61
2022/04/13 07:02:35;;;;;;;10.05;5.20;;;;;;;8.39;50.74;100386.69;1769457;79;21915;-61
2022/04/13 07:05:04;;;;;;;29.00;19.67;;;;;;;8.35;50.74;100386.35;1771783;78;20938;-61
2022/04/13 07:07:31;;;;;;;29.98;26.70;;;;;;;8.35;51.08;100379.39;1770300;80;20957;-61
2022/04/13 07:09:58;;;;;;;12.00;8.88;;;;;;;8.35;51.08;100379.39;1763322;79;21247;-61
2022/04/13 07:12:25;;;;;;;22.48;6.97;;;;;;;8.58;51.04;100403.50;1772753;79;21646;-62
2022/04/13 07:15:01;;;;;;;13.77;5.77;;;;;;;8.67;50.84;100408.44;1764404;80;21453;-61
2022/04/13 07:17:27;;;;;;;13.25;5.87;;;;;;;8.73;50.98;100404.81;1764067;80;21019;-61
2022/04/13 07:19:54;;;;;;;11.40;5.78;;;;;;;8.73;50.98;100404.81;1771060;79;21612;-61
2022/04/13 07:22:20;;;;;;;13.38;5.78;;;;;;;8.81;51.00;100400.69;1771412;79;20972;-62
2022/04/13 07:24:47;;;;;;;8.83;5.37;;;;;;;8.85;51.05;100406.20;1767489;79;21020;-61
2022/04/13 07:27:14;;;;;;;21.60;7.33;;;;;;;8.97;51.12;100412.37;1766251;80;21067;-62
2022/04/13 07:29:41;;;;;;;13.10;6.50;;;;;;;9.03;51.00;100401.76;1762906;80;20969;-61
2022/04/13 07:32:08;;;;;;;12.07;6.23;;;;;;;9.00;51.02;100399.25;1769672;79;20990;-61
2022/04/13 07:34:35;;;;;;;21.60;7.85;;;;;;;9.02;51.13;100392.25;1766607;80;20980;-61
2022/04/13 07:37:04;;;;;;;17.57;8.33;;;;;;;9.00;51.08;100404.45;1767911;79;20942;-62
2022/04/13 07:39:36;;;;;;;53.58;11.18;;;;;;;8.96;51.20;100389.37;1769559;80;21098;-60
2022/04/13 07:42:05;;;;;;;18.07;8.13;;;;;;;9.10;51.24;100403.30;1769361;79;21005;-60
2022/04/13 07:44:32;;;;;;;14.25;6.97;;;;;;;9.13;51.05;100396.69;1764759;79;20946;-61
2022/04/13 07:46:58;;;;;;;40.83;9.40;;;;;;;9.02;50.97;100377.92;1766819;80;20925;-61
2022/04/13 07:49:25;;;;;;;15.93;7.10;;;;;;;9.11;51.32;100384.14;1766756;80;20989;-61
2022/04/13 07:52:00;;;;;;;23.17;9.73;;;;;;;9.10;51.07;100390.27;1767120;80;21254;-61
2022/04/13 07:54:26;;;;;;;19.73;9.28;;;;;;;9.08;51.06;100394.66;1764840;80;21029;-61
2022/04/13 07:56:53;;;;;;;19.85;9.60;;;;;;;9.09;51.22;100395.05;1766511;80;20931;-61
2022/04/13 07:59:20;;;;;;;21.03;9.37;;;;;;;9.12;51.21;100394.95;1769434;80;21055;-61
2022/04/13 08:01:46;;;;;;;15.57;9.07;;;;;;;9.16;51.36;100394.44;1767321;79;21525;-62
2022/04/13 08:04:13;;;;;;;21.50;9.10;;;;;;;9.18;51.31;100394.77;1768326;80;21424;-61
2022/04/13 08:06:39;;;;;;;24.53;10.03;;;;;;;9.24;51.49;100390.27;1774177;78;21577;-62
2022/04/13 08:09:06;;;;;;;18.70;10.60;;;;;;;9.32;51.41;100386.98;1786826;78;21060;-61
2022/04/13 08:11:32;;;;;;;19.17;9.10;;;;;;;9.38;51.61;100389.38;1791167;78;21126;-61
2022/04/13 08:13:59;;;;;;;12.37;8.63;;;;;;;9.47;51.64;100389.56;1790413;78;21040;-61
2022/04/13 08:16:26;;;;;;;19.10;9.10;;;;;;;9.55;51.56;100389.72;1785862;78;21220;-61
2022/04/13 08:18:52;;;;;;;12.90;8.87;;;;;;;9.63;51.59;100398.15;1786832;78;20921;-61
2022/04/13 08:21:19;;;;;;;15.97;8.70;;;;;;;9.72;51.43;100398.72;1793023;78;20940;-61
2022/04/13 08:23:46;;;;;;;20.05;9.38;;;;;;;9.80;51.52;100394.98;1792769;80;21122;-62
2022/04/13 08:26:13;;;;;;;19.55;8.73;;;;;;;9.95;51.73;100398.83;1793018;78;21011;-61
2022/04/13 08:28:39;;;;;;;19.73;8.68;;;;;;;10.07;51.52;100393.17;1793408;80;21069;-61
2022/04/13 08:31:09;;;;;;;12.77;7.13;;;;;;;10.18;51.51;100389.36;1792232;78;21748;-61
2022/04/13 08:33:35;;;;;;;19.12;8.03;;;;;;;10.33;51.60;100386.22;1789492;78;21069;-60
2022/04/13 08:36:02;;;;;;;12.98;6.40;;;;;;;10.56;51.63;100386.72;1789817;79;20999;-61
2022/04/13 08:38:28;;;;;;;9.88;5.60;;;;;;;10.72;51.38;100393.52;1791446;78;21001;-61
2022/04/13 08:41:04;;;;;;;12.83;6.63;;;;;;;10.77;50.88;100391.59;1792881;78;21592;-61
2022/04/13 08:43:36;;;;;;;9.90;5.45;;;;;;;10.83;51.23;100392.66;1764327;78;21089;-61
2022/04/13 08:46:07;;;;;;;14.23;6.33;;;;;;;10.90;50.74;100397.22;1789968;78;20987;-61
2022/04/13 08:48:36;;;;;;;12.95;5.62;;;;;;;10.89;50.95;100406.79;1789392;78;20941;-60
2022/04/13 08:51:06;;;;;;;13.70;6.10;;;;;;;10.93;50.66;100405.78;1789739;78;20993;-60
2022/04/13 08:53:37;;;;;;;10.40;6.40;;;;;;;10.95;50.73;100403.97;1792693;78;21880;-61
2022/04/13 08:56:05;;;;;;;12.65;6.58;;;;;;;11.00;50.73;100399.02;1793081;79;21455;-60
2022/04/13 08:59:01;;;;;;;12.50;7.55;;;;;;;11.08;50.88;100392.58;1792678;78;21005;-61
2022/04/13 09:01:56;;;;;;;13.53;5.95;;;;;;;11.15;50.76;100387.98;1792116;78;20966;-61
2022/04/13 09:04:28;;;;;;;20.00;6.75;;;;;;;11.28;50.56;100385.26;1792803;78;20954;-61
2022/04/13 09:07:01;;;;;;;11.45;6.53;;;;;;;11.47;50.79;100372.77;1791073;78;21150;-61
2022/04/13 09:09:47;;;;;;;13.75;7.05;;;;;;;11.62;50.27;100358.63;1790573;79;21004;-61
2022/04/13 09:12:14;;;;;;;16.02;6.78;;;;;;;11.50;50.25;100363.49;1791990;78;21051;-63
2022/04/13 09:14:44;;;;;;;16.05;6.40;;;;;;;11.53;50.47;100368.59;1785181;80;21522;-61
2022/04/13 09:17:13;;;;;;;16.80;6.53;;;;;;;11.64;50.24;100374.23;1760891;79;20965;-62
2022/04/13 09:19:44;;;;;;;11.50;6.15;;;;;;;11.64;50.10;100365.08;1789941;78;21096;-63
2022/04/13 09:22:11;;;;;;;10.72;6.40;;;;;;;11.74;50.06;100366.41;1788361;78;20974;-62
2022/04/13 09:24:38;;;;;;;;;;;;;;;11.82;49.88;100370.02;1793780;78;20924;-61
2022/04/13 09:27:05;;;;;;;;;;;;;;;11.94;49.67;100366.06;1795502;78;20170;-61
2022/04/13 09:29:31;;;;;;;11.60;6.03;;;;;;;12.13;50.03;100361.73;1791147;78;20151;-62
2022/04/13 09:32:00;;;;;;;11.75;5.45;;;;;;;12.43;49.95;100347.72;1788719;78;21797;-62
2022/04/13 09:34:27;;;;;;;9.20;4.60;;;;;;;12.60;49.55;100340.41;1788121;78;20973;-63
2022/04/13 09:36:57;;;;;;;15.60;4.90;;;;;;;12.66;49.33;100329.67;1760255;80;20970;-62
2022/04/13 09:39:24;;;;;;;9.45;4.85;;;;;;;12.72;49.01;100339.02;1788310;78;21430;-62
2022/04/13 09:41:51;;;;;;;9.20;3.95;;;;;;;13.02;49.48;100341.95;1790020;78;21119;-62
2022/04/13 09:44:19;;;;;;;20.00;4.78;;;;;;;13.20;48.20;100341.09;1786574;79;22274;-63
2022/04/13 09:46:49;;;;;;;14.53;4.08;;;;;;;13.23;48.71;100339.25;1791807;78;21036;-63
2022/04/13 09:49:22;;;;;;;14.23;4.67;;;;;;;13.36;47.98;100332.49;1758544;79;21519;-63
2022/04/13 09:51:50;;;;;;;9.23;3.27;;;;;;;13.28;47.56;100334.67;1791117;80;21116;-64
2022/04/13 09:54:22;;;;;;;5.75;3.30;;;;;;;13.14;46.13;100326.97;1789936;78;21055;-62
2022/04/13 09:56:49;;;;;;;7.17;3.55;;;;;;;13.08;45.30;100329.89;1788273;78;21367;-63
2022/04/13 09:59:31;;;;;;;4.42;2.95;;;;;;;13.16;46.72;100334.31;1793152;78;21041;-61
2022/04/13 10:01:59;;;;;;;9.58;3.75;;;;;;;13.55;47.08;100328.03;1793158;78;20985;-61
2022/04/13 10:04:31;;;;;;;8.80;3.55;;;;;;;13.90;46.86;100324.11;1793310;78;21546;-62
2022/04/13 10:07:15;;;;;;;8.23;3.30;;;;;;;13.91;46.03;100329.73;1788167;78;22528;-63
2022/04/13 10:09:43;;;;;;;8.30;3.20;;;;;;;13.93;46.23;100325.26;1760533;79;21769;-64
2022/04/13 10:12:10;;;;;;;8.60;3.75;;;;;;;14.00;46.17;100325.34;1771504;78;21029;-63
2022/04/13 10:14:39;;;;;;;11.85;4.97;;;;;;;14.02;45.38;100324.77;1771993;78;21564;-63
2022/04/13 10:17:08;;;;;;;7.33;3.52;;;;;;;13.74;44.74;100316.62;1772344;79;21007;-64
2022/04/13 10:19:37;;;;;;;7.15;3.67;;;;;;;13.53;44.19;100314.17;1775518;78;20954;-62
2022/04/13 10:22:05;;;;;;;6.30;3.65;;;;;;;13.32;44.49;100313.91;1772594;78;21542;-62
2022/04/13 10:24:39;;;;;;;9.88;3.37;;;;;;;13.15;43.82;100315.55;1773678;80;21027;-62
2022/04/13 10:27:18;;;;;;;9.00;3.55;;;;;;;13.06;44.48;100316.47;1768801;80;20940;-62
2022/04/13 10:29:48;;;;;;;7.78;3.60;;;;;;;13.10;44.43;100310.98;1772556;78;21067;-62
2022/04/13 10:32:22;;;;;;;13.05;4.10;;;;;;;13.00;43.62;100301.88;1767485;80;21019;-62
2022/04/13 10:34:59;;;;;;;6.45;3.60;;;;;;;13.13;44.72;100305.58;1773532;80;21071;-62
2022/04/13 10:37:27;;;;;;;8.58;3.95;;;;;;;13.37;44.21;100305.36;1774300;78;21617;-61
2022/04/13 10:39:54;;;;;;;7.58;3.20;;;;;;;13.24;42.44;100299.82;1769360;78;21739;-62
2022/04/13 10:42:22;;;;;;;7.70;3.60;;;;;;;13.05;42.86;100297.27;1771477;78;20930;-61
2022/04/13 10:45:05;;;;;;;12.43;3.17;;;;;;;13.19;43.52;100292.20;1771415;80;20988;-62
2022/04/13 10:47:57;;;;;;;11.65;3.60;;;;;;;13.41;43.42;100291.16;1769075;78;21724;-61
2022/04/13 10:50:55;;;;;;;9.40;3.15;;;;;;;13.64;43.76;100294.80;1772324;78;20977;-60
2022/04/13 10:53:55;;;;;;;8.60;3.75;;;;;;;13.90;43.68;100296.55;1739599;79;20935;-61
2022/04/13 10:56:26;;;;;;;5.15;3.20;;;;;;;13.93;42.99;100292.91;1738889;82;20950;-61
2022/04/13 10:59:32;;;;;;;6.00;3.40;;;;;;;13.96;42.78;100298.00;1740339;79;21042;-62
2022/04/13 11:02:04;;;;;;;4.85;3.35;;;;;;;13.82;43.15;100290.84;1737309;79;21441;-62
2022/04/13 11:04:33;;;;;;;5.60;2.98;;;;;;;13.93;43.02;100284.56;1737050;79;21601;-62
2022/04/13 11:07:02;;;;;;;7.40;3.52;;;;;;;13.90;42.36;100293.92;1739242;81;21143;-61
2022/04/13 11:09:35;;;;;;;8.98;3.30;;;;;;;13.58;40.96;100287.68;1758434;80;21016;-62
2022/04/13 11:12:02;;;;;;;7.55;3.37;;;;;;;13.39;41.91;100290.41;1758348;79;21139;-61
2022/04/13 11:14:29;;;;;;;9.05;3.65;;;;;;;13.30;41.48;100278.56;1758367;81;22270;-62
2022/04/13 11:17:13;;;;;;;6.60;3.52;;;;;;;13.15;41.07;100290.64;1760097;79;20950;-61
2022/04/13 11:19:44;;;;;;;7.50;3.10;;;;;;;13.18;41.95;100290.95;1753246;79;21045;-61
2022/04/13 11:22:18;;;;;;;6.12;3.30;;;;;;;13.26;41.46;100290.14;1756290;79;21538;-61
2022/04/13 11:25:02;;;;;;;14.25;4.83;;;;;;;13.16;41.10;100294.98;1758951;79;21637;-61
2022/04/13 11:27:24;;;;;;;6.12;3.20;;;;;;;13.19;41.81;100286.95;1751840;79;22138;-62
2022/04/13 11:30:01;;;;;;;5.90;3.22;;;;;;;13.24;40.68;100288.48;1760423;79;21644;-61
2022/04/13 11:32:39;;;;;;;7.40;3.33;;;;;;;13.08;40.32;100282.70;1767022;78;21061;-62